Halkirk, United Kingdom
Current Conditions -  °F | °C
As of 2:20 PM on Monday 26 Jan 2015 (Local Time) from EGPC Reporting Station
Rain Showers Rain Showers  
Wind Chill: 26°   Ceiling: Unl
Heat Index: 37°   Visibility: 6mi
Dew Point: 32°   Wind: 23mph
Humidity: 81%   Direction: 290°WNW
Pressure: 29.94"   Gusts: NA
Location:  58.5°N, 3.48°W
Report Text: EGPC 261420Z 29020KT 9999 VCSH FEW010 SCT014CB 03/00 Q1014
Loading
Personal Weather Stations






























Interactive Weather Map New forecast layout! Learn more

10-Day Weather Forecast

Advertisements
Track Severe Weather on mobile